Terminal Aerodrome Forecast
Issued by NWS

Current Version | Previous Version | Graphics & Text | Print | Product List | Glossary Off
Versions: 1 2 3 4 5 6 7 8 9 10 11 12 13 14 15 16 17

000
FTUS41 KPBZ 271137
TAFMGW
TAF
KMGW 271137Z 2712/2812 18005KT P6SM -SHRA BKN025
     FM271600 20008KT P6SM BKN050
     FM280500 19006KT P6SM VCSH OVC040
     FM281000 VRB04KT P6SM BKN080=

USA.gov is the U.S. government's official web portal to all federal, state and local government web resources and services.